sensor_id;sensor_type;location;lat;lon;timestamp;pressure;altitude;pressure_sealevel;temperature;humidity
80654;BME280;70020;45.524;10.240;2024-03-25T00:01:22;99451.13;;;13.05;36.30
80654;BME280;70020;45.524;10.240;2024-03-25T00:03:48;99450.88;;;13.08;37.54
80654;BME280;70020;45.524;10.240;2024-03-25T00:06:14;99455.38;;;12.86;39.70
80654;BME280;70020;45.524;10.240;2024-03-25T00:08:40;99451.78;;;12.78;39.89
80654;BME280;70020;45.524;10.240;2024-03-25T00:11:05;99448.09;;;12.80;39.18
80654;BME280;70020;45.524;10.240;2024-03-25T00:13:32;99447.56;;;12.77;38.34
80654;BME280;70020;45.524;10.240;2024-03-25T00:15:58;99445.66;;;12.79;37.54
80654;BME280;70020;45.524;10.240;2024-03-25T00:18:24;99453.72;;;12.85;39.11
80654;BME280;70020;45.524;10.240;2024-03-25T00:20:50;99460.81;;;12.74;39.70
80654;BME280;70020;45.524;10.240;2024-03-25T00:23:17;99466.28;;;12.71;41.09
80654;BME280;70020;45.524;10.240;2024-03-25T00:25:42;99464.38;;;12.63;41.56
80654;BME280;70020;45.524;10.240;2024-03-25T00:28:08;99460.78;;;12.55;42.21
80654;BME280;70020;45.524;10.240;2024-03-25T00:30:34;99452.75;;;12.58;42.52
80654;BME280;70020;45.524;10.240;2024-03-25T00:33:05;99459.19;;;12.54;43.10
80654;BME280;70020;45.524;10.240;2024-03-25T00:35:35;99453.56;;;12.39;43.92
80654;BME280;70020;45.524;10.240;2024-03-25T00:38:01;99466.84;;;12.06;43.74
80654;BME280;70020;45.524;10.240;2024-03-25T00:40:26;99467.16;;;12.22;43.63
80654;BME280;70020;45.524;10.240;2024-03-25T00:42:52;99463.91;;;12.29;43.28
80654;BME280;70020;45.524;10.240;2024-03-25T00:45:18;99473.44;;;12.29;44.21
80654;BME280;70020;45.524;10.240;2024-03-25T00:47:45;99473.53;;;12.08;44.37
80654;BME280;70020;45.524;10.240;2024-03-25T00:50:10;99470.25;;;12.06;43.49
80654;BME280;70020;45.524;10.240;2024-03-25T00:52:39;99464.13;;;12.17;43.73
80654;BME280;70020;45.524;10.240;2024-03-25T00:55:05;99468.25;;;12.19;43.39
80654;BME280;70020;45.524;10.240;2024-03-25T00:57:31;99469.06;;;12.20;44.93
80654;BME280;70020;45.524;10.240;2024-03-25T00:59:57;99475.59;;;12.14;44.13
80654;BME280;70020;45.524;10.240;2024-03-25T01:02:23;99475.28;;;12.08;43.87
80654;BME280;70020;45.524;10.240;2024-03-25T01:04:50;99471.59;;;12.01;45.51
80654;BME280;70020;45.524;10.240;2024-03-25T01:07:16;99471.34;;;12.04;44.86
80654;BME280;70020;45.524;10.240;2024-03-25T01:09:42;99471.44;;;12.02;44.95
80654;BME280;70020;45.524;10.240;2024-03-25T01:12:08;99460.00;;;11.75;44.08
80654;BME280;70020;45.524;10.240;2024-03-25T01:14:34;99455.38;;;11.69;42.73
80654;BME280;70020;45.524;10.240;2024-03-25T01:17:00;99452.63;;;11.70;41.77
80654;BME280;70020;45.524;10.240;2024-03-25T01:19:26;99452.53;;;11.81;42.09
80654;BME280;70020;45.524;10.240;2024-03-25T01:21:52;99454.31;;;11.81;40.43
80654;BME280;70020;45.524;10.240;2024-03-25T01:24:17;99450.53;;;11.85;38.96
80654;BME280;70020;45.524;10.240;2024-03-25T01:26:45;99446.53;;;11.81;39.60
80654;BME280;70020;45.524;10.240;2024-03-25T01:29:10;99451.34;;;11.85;37.92
80654;BME280;70020;45.524;10.240;2024-03-25T01:31:37;99447.50;;;11.80;38.33
80654;BME280;70020;45.524;10.240;2024-03-25T01:34:03;99456.09;;;11.80;38.21
80654;BME280;70020;45.524;10.240;2024-03-25T01:36:29;99459.38;;;11.82;37.79
80654;BME280;70020;45.524;10.240;2024-03-25T01:38:54;99458.50;;;11.72;38.07
80654;BME280;70020;45.524;10.240;2024-03-25T01:41:21;99459.78;;;11.67;37.71
80654;BME280;70020;45.524;10.240;2024-03-25T01:43:50;99464.38;;;11.53;36.27
80654;BME280;70020;45.524;10.240;2024-03-25T01:46:18;99457.44;;;11.54;36.24
80654;BME280;70020;45.524;10.240;2024-03-25T01:48:46;99456.53;;;11.64;36.62
80654;BME280;70020;45.524;10.240;2024-03-25T01:51:14;99464.56;;;11.61;36.82
80654;BME280;70020;45.524;10.240;2024-03-25T01:53:41;99466.34;;;11.61;36.38
80654;BME280;70020;45.524;10.240;2024-03-25T01:56:08;99459.94;;;11.65;38.46
80654;BME280;70020;45.524;10.240;2024-03-25T01:58:35;99469.88;;;11.60;38.38
80654;BME280;70020;45.524;10.240;2024-03-25T02:01:02;99466.53;;;11.48;39.11
80654;BME280;70020;45.524;10.240;2024-03-25T02:03:29;99469.94;;;11.49;40.62
80654;BME280;70020;45.524;10.240;2024-03-25T02:05:58;99469.44;;;11.34;37.22
80654;BME280;70020;45.524;10.240;2024-03-25T02:08:26;99466.84;;;11.34;38.44
80654;BME280;70020;45.524;10.240;2024-03-25T02:10:54;99458.63;;;11.50;38.46
80654;BME280;70020;45.524;10.240;2024-03-25T02:13:20;99460.09;;;11.43;40.23
80654;BME280;70020;45.524;10.240;2024-03-25T02:15:47;99453.72;;;11.47;40.86
80654;BME280;70020;45.524;10.240;2024-03-25T02:18:16;99451.38;;;11.44;39.87
80654;BME280;70020;45.524;10.240;2024-03-25T02:20:42;99451.22;;;11.45;39.31
80654;BME280;70020;45.524;10.240;2024-03-25T02:23:08;99458.06;;;11.46;39.05
80654;BME280;70020;45.524;10.240;2024-03-25T02:25:36;99447.66;;;11.37;39.72
80654;BME280;70020;45.524;10.240;2024-03-25T02:28:04;99449.16;;;11.39;39.88
80654;BME280;70020;45.524;10.240;2024-03-25T02:30:30;99453.44;;;11.50;40.92
80654;BME280;70020;45.524;10.240;2024-03-25T02:32:57;99449.84;;;11.41;39.83
80654;BME280;70020;45.524;10.240;2024-03-25T02:35:24;99457.56;;;11.32;39.18
80654;BME280;70020;45.524;10.240;2024-03-25T02:37:51;99452.25;;;11.33;39.77
80654;BME280;70020;45.524;10.240;2024-03-25T02:40:17;99446.38;;;11.31;40.72
80654;BME280;70020;45.524;10.240;2024-03-25T02:42:44;99444.06;;;11.28;40.44
80654;BME280;70020;45.524;10.240;2024-03-25T02:45:10;99449.81;;;11.11;41.43
80654;BME280;70020;45.524;10.240;2024-03-25T02:47:35;99445.84;;;11.07;42.90
80654;BME280;70020;45.524;10.240;2024-03-25T02:50:02;99453.16;;;11.02;43.67
80654;BME280;70020;45.524;10.240;2024-03-25T02:52:28;99448.16;;;10.89;42.36
80654;BME280;70020;45.524;10.240;2024-03-25T02:54:53;99446.38;;;10.90;42.26
80654;BME280;70020;45.524;10.240;2024-03-25T02:57:20;99448.72;;;10.93;42.81
80654;BME280;70020;45.524;10.240;2024-03-25T02:59:46;99453.25;;;11.01;43.25
80654;BME280;70020;45.524;10.240;2024-03-25T03:02:11;99450.75;;;11.10;43.35
80654;BME280;70020;45.524;10.240;2024-03-25T03:04:37;99451.50;;;11.01;44.03
80654;BME280;70020;45.524;10.240;2024-03-25T03:07:03;99447.00;;;11.03;43.86
80654;BME280;70020;45.524;10.240;2024-03-25T03:09:29;99450.19;;;10.86;45.09
80654;BME280;70020;45.524;10.240;2024-03-25T03:11:54;99452.00;;;10.63;46.06
80654;BME280;70020;45.524;10.240;2024-03-25T03:14:20;99448.31;;;10.45;41.90
80654;BME280;70020;45.524;10.240;2024-03-25T03:16:46;99452.41;;;10.48;42.16
80654;BME280;70020;45.524;10.240;2024-03-25T03:19:15;99445.53;;;10.69;41.88
80654;BME280;70020;45.524;10.240;2024-03-25T03:21:40;99448.28;;;10.88;42.96
80654;BME280;70020;45.524;10.240;2024-03-25T03:24:06;99451.66;;;10.88;41.26
80654;BME280;70020;45.524;10.240;2024-03-25T03:26:32;99451.56;;;10.90;41.13
80654;BME280;70020;45.524;10.240;2024-03-25T03:28:58;99453.63;;;10.96;42.87
80654;BME280;70020;45.524;10.240;2024-03-25T03:31:25;99450.59;;;10.91;42.07
80654;BME280;70020;45.524;10.240;2024-03-25T03:33:51;99457.09;;;10.85;41.04
80654;BME280;70020;45.524;10.240;2024-03-25T03:36:18;99459.94;;;10.82;40.87
80654;BME280;70020;45.524;10.240;2024-03-25T03:38:50;99455.75;;;10.70;41.40
80654;BME280;70020;45.524;10.240;2024-03-25T03:41:16;99461.28;;;10.66;41.04
80654;BME280;70020;45.524;10.240;2024-03-25T03:43:42;99462.19;;;10.76;41.59
80654;BME280;70020;45.524;10.240;2024-03-25T03:46:08;99465.94;;;10.83;42.07
80654;BME280;70020;45.524;10.240;2024-03-25T03:48:34;99474.25;;;10.86;41.82
80654;BME280;70020;45.524;10.240;2024-03-25T03:51:00;99464.53;;;10.79;43.24
80654;BME280;70020;45.524;10.240;2024-03-25T03:53:25;99461.50;;;10.74;40.77
80654;BME280;70020;45.524;10.240;2024-03-25T03:55:59;99462.06;;;10.77;41.57
80654;BME280;70020;45.524;10.240;2024-03-25T03:58:25;99460.31;;;10.78;42.96
80654;BME280;70020;45.524;10.240;2024-03-25T04:00:51;99455.59;;;10.72;43.02
80654;BME280;70020;45.524;10.240;2024-03-25T04:03:17;99450.94;;;10.66;43.58
80654;BME280;70020;45.524;10.240;2024-03-25T04:05:43;99452.38;;;10.59;43.96
80654;BME280;70020;45.524;10.240;2024-03-25T04:08:12;99439.06;;;10.63;43.44
80654;BME280;70020;45.524;10.240;2024-03-25T04:10:38;99442.03;;;10.59;45.60
80654;BME280;70020;45.524;10.240;2024-03-25T04:13:04;99434.28;;;10.59;44.48
80654;BME280;70020;45.524;10.240;2024-03-25T04:15:37;99443.09;;;10.56;44.41
80654;BME280;70020;45.524;10.240;2024-03-25T04:18:03;99433.22;;;10.61;44.38
80654;BME280;70020;45.524;10.240;2024-03-25T04:20:32;99438.00;;;10.66;43.30
80654;BME280;70020;45.524;10.240;2024-03-25T04:23:01;99438.00;;;10.66;43.43
80654;BME280;70020;45.524;10.240;2024-03-25T04:25:27;99432.13;;;10.64;43.39
80654;BME280;70020;45.524;10.240;2024-03-25T04:27:52;99437.50;;;10.40;42.24
80654;BME280;70020;45.524;10.240;2024-03-25T04:30:18;99429.50;;;10.43;42.94
80654;BME280;70020;45.524;10.240;2024-03-25T04:32:44;99435.84;;;10.39;41.46
80654;BME280;70020;45.524;10.240;2024-03-25T04:35:10;99430.69;;;10.39;41.41
80654;BME280;70020;45.524;10.240;2024-03-25T04:37:36;99434.22;;;10.38;40.89
80654;BME280;70020;45.524;10.240;2024-03-25T04:40:02;99434.13;;;10.29;41.15
80654;BME280;70020;45.524;10.240;2024-03-25T04:42:28;99429.44;;;10.22;40.62
80654;BME280;70020;45.524;10.240;2024-03-25T04:44:54;99432.00;;;10.22;41.16
80654;BME280;70020;45.524;10.240;2024-03-25T04:47:20;99427.66;;;10.23;40.08
80654;BME280;70020;45.524;10.240;2024-03-25T04:49:46;99437.28;;;10.32;42.47
80654;BME280;70020;45.524;10.240;2024-03-25T04:52:12;99431.31;;;10.32;44.26
80654;BME280;70020;45.524;10.240;2024-03-25T04:54:44;99431.19;;;10.33;44.82
80654;BME280;70020;45.524;10.240;2024-03-25T04:57:10;99438.34;;;10.30;44.77
80654;BME280;70020;45.524;10.240;2024-03-25T04:59:36;99437.88;;;10.24;46.63
80654;BME280;70020;45.524;10.240;2024-03-25T05:02:01;99437.19;;;10.22;47.10
80654;BME280;70020;45.524;10.240;2024-03-25T05:04:27;99441.78;;;10.19;43.57
80654;BME280;70020;45.524;10.240;2024-03-25T05:06:53;99442.25;;;10.13;42.49
80654;BME280;70020;45.524;10.240;2024-03-25T05:09:19;99437.53;;;10.18;40.99
80654;BME280;70020;45.524;10.240;2024-03-25T05:11:45;99441.19;;;10.15;41.54
80654;BME280;70020;45.524;10.240;2024-03-25T05:14:11;99443.19;;;10.12;42.89
80654;BME280;70020;45.524;10.240;2024-03-25T05:16:37;99442.25;;;10.24;43.11
80654;BME280;70020;45.524;10.240;2024-03-25T05:19:03;99443.50;;;10.30;45.30
80654;BME280;70020;45.524;10.240;2024-03-25T05:21:30;99448.22;;;10.36;45.91
80654;BME280;70020;45.524;10.240;2024-03-25T05:23:56;99452.06;;;10.41;45.45
80654;BME280;70020;45.524;10.240;2024-03-25T05:26:22;99448.53;;;10.42;43.58
80654;BME280;70020;45.524;10.240;2024-03-25T05:28:57;99455.25;;;10.45;46.33
80654;BME280;70020;45.524;10.240;2024-03-25T05:31:23;99457.97;;;10.43;46.84
80654;BME280;70020;45.524;10.240;2024-03-25T05:33:50;99464.44;;;10.38;47.57
80654;BME280;70020;45.524;10.240;2024-03-25T05:36:18;99464.06;;;10.42;48.24
80654;BME280;70020;45.524;10.240;2024-03-25T05:38:44;99472.88;;;10.40;48.53
80654;BME280;70020;45.524;10.240;2024-03-25T05:41:09;99483.09;;;10.41;48.27
80654;BME280;70020;45.524;10.240;2024-03-25T05:43:36;99486.41;;;10.32;49.73
80654;BME280;70020;45.524;10.240;2024-03-25T05:46:02;99479.09;;;10.37;49.66
80654;BME280;70020;45.524;10.240;2024-03-25T05:48:28;99473.47;;;10.32;50.20
80654;BME280;70020;45.524;10.240;2024-03-25T05:53:26;99483.44;;;10.48;50.58
80654;BME280;70020;45.524;10.240;2024-03-25T05:55:55;99481.78;;;10.47;49.50
80654;BME280;70020;45.524;10.240;2024-03-25T05:58:22;99484.13;;;10.61;49.00
80654;BME280;70020;45.524;10.240;2024-03-25T06:00:51;99479.72;;;10.72;48.71
80654;BME280;70020;45.524;10.240;2024-03-25T06:03:18;99483.13;;;10.73;47.46
80654;BME280;70020;45.524;10.240;2024-03-25T06:05:43;99481.78;;;10.89;46.90
80654;BME280;70020;45.524;10.240;2024-03-25T06:08:09;99484.81;;;10.94;45.04
80654;BME280;70020;45.524;10.240;2024-03-25T06:10:43;99491.84;;;11.04;43.59
80654;BME280;70020;45.524;10.240;2024-03-25T06:13:09;99495.72;;;11.09;41.79
80654;BME280;70020;45.524;10.240;2024-03-25T06:15:35;99499.81;;;11.12;43.17
80654;BME280;70020;45.524;10.240;2024-03-25T06:18:01;99501.75;;;11.19;44.74
80654;BME280;70020;45.524;10.240;2024-03-25T06:20:27;99501.97;;;11.27;44.62
80654;BME280;70020;45.524;10.240;2024-03-25T06:22:54;99505.00;;;11.32;44.91
80654;BME280;70020;45.524;10.240;2024-03-25T06:25:19;99504.88;;;11.34;45.97
80654;BME280;70020;45.524;10.240;2024-03-25T06:27:45;99513.09;;;11.39;46.23
80654;BME280;70020;45.524;10.240;2024-03-25T06:30:11;99515.56;;;11.40;46.51
80654;BME280;70020;45.524;10.240;2024-03-25T06:32:56;99518.09;;;11.51;45.46
80654;BME280;70020;45.524;10.240;2024-03-25T06:35:42;99514.28;;;11.55;45.50
80654;BME280;70020;45.524;10.240;2024-03-25T06:38:09;99517.56;;;11.57;45.57
80654;BME280;70020;45.524;10.240;2024-03-25T06:40:35;99518.69;;;11.64;45.04
80654;BME280;70020;45.524;10.240;2024-03-25T06:43:01;99512.53;;;11.77;45.75
80654;BME280;70020;45.524;10.240;2024-03-25T06:45:27;99517.66;;;11.88;44.59
80654;BME280;70020;45.524;10.240;2024-03-25T06:47:53;99517.13;;;11.94;46.38
80654;BME280;70020;45.524;10.240;2024-03-25T06:50:19;99522.50;;;12.02;46.03
80654;BME280;70020;45.524;10.240;2024-03-25T06:52:45;99523.63;;;12.09;46.62
80654;BME280;70020;45.524;10.240;2024-03-25T06:55:11;99533.72;;;12.12;45.42
80654;BME280;70020;45.524;10.240;2024-03-25T06:57:37;99534.03;;;12.18;45.37
80654;BME280;70020;45.524;10.240;2024-03-25T07:00:03;99539.22;;;12.28;46.23
80654;BME280;70020;45.524;10.240;2024-03-25T07:02:35;99544.16;;;12.31;48.21
80654;BME280;70020;45.524;10.240;2024-03-25T07:05:01;99552.91;;;12.30;46.53
80654;BME280;70020;45.524;10.240;2024-03-25T07:07:26;99558.34;;;12.27;46.68
80654;BME280;70020;45.524;10.240;2024-03-25T07:09:53;99554.91;;;12.17;44.80
80654;BME280;70020;45.524;10.240;2024-03-25T07:12:19;99552.16;;;12.09;42.51
80654;BME280;70020;45.524;10.240;2024-03-25T07:14:45;99557.00;;;12.23;42.21
80654;BME280;70020;45.524;10.240;2024-03-25T07:17:11;99559.44;;;12.24;40.24
80654;BME280;70020;45.524;10.240;2024-03-25T07:19:38;99557.53;;;12.26;41.01
80654;BME280;70020;45.524;10.240;2024-03-25T07:22:04;99559.47;;;12.34;41.17
80654;BME280;70020;45.524;10.240;2024-03-25T07:24:29;99567.81;;;12.38;42.52
80654;BME280;70020;45.524;10.240;2024-03-25T07:26:55;99573.00;;;12.38;44.19
80654;BME280;70020;45.524;10.240;2024-03-25T07:29:22;99578.75;;;12.41;44.86
80654;BME280;70020;45.524;10.240;2024-03-25T07:31:48;99576.41;;;12.38;45.80
80654;BME280;70020;45.524;10.240;2024-03-25T07:34:14;99580.81;;;12.47;45.65
80654;BME280;70020;45.524;10.240;2024-03-25T07:36:41;99581.94;;;12.54;46.37
80654;BME280;70020;45.524;10.240;2024-03-25T07:39:06;99577.47;;;12.66;45.98
80654;BME280;70020;45.524;10.240;2024-03-25T07:41:33;99575.00;;;12.64;47.03
80654;BME280;70020;45.524;10.240;2024-03-25T07:43:59;99579.69;;;12.70;47.06
80654;BME280;70020;45.524;10.240;2024-03-25T07:46:25;99584.50;;;12.84;46.84
80654;BME280;70020;45.524;10.240;2024-03-25T07:48:51;99585.28;;;12.85;47.02
80654;BME280;70020;45.524;10.240;2024-03-25T07:51:17;99582.19;;;12.91;46.03
80654;BME280;70020;45.524;10.240;2024-03-25T07:53:43;99594.59;;;12.87;45.84
80654;BME280;70020;45.524;10.240;2024-03-25T07:56:09;99593.66;;;12.98;46.03
80654;BME280;70020;45.524;10.240;2024-03-25T07:58:35;99600.13;;;13.04;45.31
80654;BME280;70020;45.524;10.240;2024-03-25T08:01:01;99601.19;;;13.01;44.14
80654;BME280;70020;45.524;10.240;2024-03-25T08:03:27;99600.88;;;12.94;44.35
80654;BME280;70020;45.524;10.240;2024-03-25T08:05:53;99610.25;;;13.07;44.51
80654;BME280;70020;45.524;10.240;2024-03-25T08:08:19;99613.06;;;12.94;43.69
80654;BME280;70020;45.524;10.240;2024-03-25T08:10:45;99610.34;;;12.95;43.77
80654;BME280;70020;45.524;10.240;2024-03-25T08:13:11;99609.41;;;12.96;42.80
80654;BME280;70020;45.524;10.240;2024-03-25T08:15:37;99608.84;;;13.03;43.58
80654;BME280;70020;45.524;10.240;2024-03-25T08:18:03;99620.53;;;13.18;43.03
80654;BME280;70020;45.524;10.240;2024-03-25T08:20:31;99612.59;;;13.29;42.29
80654;BME280;70020;45.524;10.240;2024-03-25T08:22:57;99610.28;;;13.35;41.65
80654;BME280;70020;45.524;10.240;2024-03-25T08:25:24;99608.38;;;13.47;41.74
80654;BME280;70020;45.524;10.240;2024-03-25T08:27:50;99613.44;;;13.58;41.40
80654;BME280;70020;45.524;10.240;2024-03-25T08:30:16;99603.41;;;13.73;41.49
80654;BME280;70020;45.524;10.240;2024-03-25T08:32:42;99599.19;;;13.72;39.92
80654;BME280;70020;45.524;10.240;2024-03-25T08:35:08;99596.19;;;13.76;39.59
80654;BME280;70020;45.524;10.240;2024-03-25T08:37:34;99596.84;;;13.88;40.14
80654;BME280;70020;45.524;10.240;2024-03-25T08:40:00;99592.44;;;13.98;39.54
80654;BME280;70020;45.524;10.240;2024-03-25T08:42:26;99596.00;;;13.97;37.77
80654;BME280;70020;45.524;10.240;2024-03-25T08:44:51;99591.19;;;14.11;37.35
80654;BME280;70020;45.524;10.240;2024-03-25T08:47:18;99594.56;;;14.21;37.87
80654;BME280;70020;45.524;10.240;2024-03-25T08:49:43;99599.63;;;14.32;39.34
80654;BME280;70020;45.524;10.240;2024-03-25T08:52:10;99600.41;;;14.43;37.66
80654;BME280;70020;45.524;10.240;2024-03-25T08:54:36;99597.44;;;14.38;37.00
80654;BME280;70020;45.524;10.240;2024-03-25T08:57:02;99598.66;;;14.43;36.96
80654;BME280;70020;45.524;10.240;2024-03-25T08:59:28;99593.69;;;14.50;37.79
80654;BME280;70020;45.524;10.240;2024-03-25T09:01:54;99586.34;;;14.63;36.14
80654;BME280;70020;45.524;10.240;2024-03-25T09:04:20;99591.84;;;14.60;37.02
80654;BME280;70020;45.524;10.240;2024-03-25T09:06:46;99579.94;;;14.57;37.60
80654;BME280;70020;45.524;10.240;2024-03-25T09:09:13;99586.06;;;14.66;36.92
80654;BME280;70020;45.524;10.240;2024-03-25T09:11:57;99585.13;;;14.67;36.18
80654;BME280;70020;45.524;10.240;2024-03-25T09:14:23;99582.13;;;14.62;36.06
80654;BME280;70020;45.524;10.240;2024-03-25T09:16:49;99582.00;;;14.54;36.52
80654;BME280;70020;45.524;10.240;2024-03-25T09:19:17;99581.91;;;14.73;37.13
80654;BME280;70020;45.524;10.240;2024-03-25T09:21:44;99579.31;;;14.73;36.01
80654;BME280;70020;45.524;10.240;2024-03-25T09:24:10;99580.09;;;14.83;35.30
80654;BME280;70020;45.524;10.240;2024-03-25T09:26:35;99575.38;;;14.69;34.34
80654;BME280;70020;45.524;10.240;2024-03-25T09:29:01;99570.09;;;14.78;34.94
80654;BME280;70020;45.524;10.240;2024-03-25T09:31:28;99563.50;;;15.02;35.64
80654;BME280;70020;45.524;10.240;2024-03-25T09:33:53;99560.44;;;15.06;33.34
80654;BME280;70020;45.524;10.240;2024-03-25T09:36:19;99555.00;;;15.17;35.15
80654;BME280;70020;45.524;10.240;2024-03-25T09:38:45;99547.13;;;15.09;34.55
80654;BME280;70020;45.524;10.240;2024-03-25T09:41:11;99547.94;;;15.27;34.04
80654;BME280;70020;45.524;10.240;2024-03-25T09:43:43;99540.22;;;15.35;34.29
80654;BME280;70020;45.524;10.240;2024-03-25T09:46:11;99547.94;;;15.27;30.95
80654;BME280;70020;45.524;10.240;2024-03-25T09:48:37;99541.00;;;15.36;29.93
80654;BME280;70020;45.524;10.240;2024-03-25T09:51:04;99542.84;;;15.43;31.96
80654;BME280;70020;45.524;10.240;2024-03-25T09:53:30;99544.66;;;15.43;30.51
80654;BME280;70020;45.524;10.240;2024-03-25T09:55:56;99541.47;;;15.49;29.60
80654;BME280;70020;45.524;10.240;2024-03-25T09:58:26;99542.59;;;15.46;29.72
80654;BME280;70020;45.524;10.240;2024-03-25T10:00:52;99531.81;;;15.67;29.22
80654;BME280;70020;45.524;10.240;2024-03-25T10:03:18;99534.03;;;15.80;30.69
80654;BME280;70020;45.524;10.240;2024-03-25T10:05:44;99530.09;;;15.76;28.47
80654;BME280;70020;45.524;10.240;2024-03-25T10:08:13;99528.47;;;15.75;31.26
80654;BME280;70020;45.524;10.240;2024-03-25T10:10:38;99524.47;;;15.88;29.11
80654;BME280;70020;45.524;10.240;2024-03-25T10:13:04;99519.31;;;15.96;28.60
80654;BME280;70020;45.524;10.240;2024-03-25T10:15:30;99513.66;;;16.09;28.55
80654;BME280;70020;45.524;10.240;2024-03-25T10:17:56;99512.91;;;16.24;29.44
80654;BME280;70020;45.524;10.240;2024-03-25T10:20:22;99506.75;;;16.33;31.41
80654;BME280;70020;45.524;10.240;2024-03-25T10:22:47;99510.34;;;16.41;31.00
80654;BME280;70020;45.524;10.240;2024-03-25T10:25:27;99513.00;;;16.49;31.66
80654;BME280;70020;45.524;10.240;2024-03-25T10:27:54;99500.97;;;16.56;29.50
80654;BME280;70020;45.524;10.240;2024-03-25T10:30:20;99504.94;;;16.68;30.37
80654;BME280;70020;45.524;10.240;2024-03-25T10:32:46;99499.22;;;16.72;30.77
80654;BME280;70020;45.524;10.240;2024-03-25T10:35:12;99497.91;;;16.76;30.30
80654;BME280;70020;45.524;10.240;2024-03-25T10:37:39;99495.63;;;16.65;27.28
80654;BME280;70020;45.524;10.240;2024-03-25T10:40:07;99493.03;;;16.81;27.25
80654;BME280;70020;45.524;10.240;2024-03-25T10:42:39;99482.25;;;16.92;28.03
80654;BME280;70020;45.524;10.240;2024-03-25T10:45:08;99487.66;;;16.91;26.82
80654;BME280;70020;45.524;10.240;2024-03-25T10:47:35;99484.56;;;16.95;26.73
80654;BME280;70020;45.524;10.240;2024-03-25T10:50:08;99486.72;;;17.08;26.30
80654;BME280;70020;45.524;10.240;2024-03-25T10:52:36;99482.28;;;17.17;24.81
80654;BME280;70020;45.524;10.240;2024-03-25T10:55:02;99475.72;;;17.21;27.22
80654;BME280;70020;45.524;10.240;2024-03-25T10:57:28;99473.63;;;17.24;28.80
80654;BME280;70020;45.524;10.240;2024-03-25T10:59:55;99474.44;;;17.17;29.88
80654;BME280;70020;45.524;10.240;2024-03-25T11:02:22;99464.63;;;17.27;28.77
80654;BME280;70020;45.524;10.240;2024-03-25T11:04:47;99463.00;;;17.26;29.43
80654;BME280;70020;45.524;10.240;2024-03-25T11:07:16;99455.31;;;17.40;29.14
80654;BME280;70020;45.524;10.240;2024-03-25T11:09:42;99453.00;;;17.53;30.93
80654;BME280;70020;45.524;10.240;2024-03-25T11:12:12;99454.94;;;17.76;37.19
80654;BME280;70020;45.524;10.240;2024-03-25T11:14:39;99447.44;;;18.11;33.08
80654;BME280;70020;45.524;10.240;2024-03-25T11:17:22;99445.63;;;17.73;27.30
80654;BME280;70020;45.524;10.240;2024-03-25T11:19:53;99450.06;;;17.64;28.08
80654;BME280;70020;45.524;10.240;2024-03-25T11:22:24;99445.47;;;17.66;29.24
80654;BME280;70020;45.524;10.240;2024-03-25T11:24:50;99437.81;;;17.65;29.05
80654;BME280;70020;45.524;10.240;2024-03-25T11:27:26;99441.72;;;17.69;28.28
80654;BME280;70020;45.524;10.240;2024-03-25T11:29:52;99440.00;;;17.84;28.59
80654;BME280;70020;45.524;10.240;2024-03-25T11:32:18;99440.63;;;17.94;28.21
80654;BME280;70020;45.524;10.240;2024-03-25T11:34:50;99435.69;;;18.07;29.67
80654;BME280;70020;45.524;10.240;2024-03-25T11:37:16;99429.81;;;18.05;27.21
80654;BME280;70020;45.524;10.240;2024-03-25T11:39:42;99428.38;;;17.95;27.67
80654;BME280;70020;45.524;10.240;2024-03-25T11:42:08;99420.50;;;18.03;27.70
80654;BME280;70020;45.524;10.240;2024-03-25T11:44:37;99421.91;;;18.13;26.68
80654;BME280;70020;45.524;10.240;2024-03-25T11:47:04;99418.44;;;18.21;25.96
80654;BME280;70020;45.524;10.240;2024-03-25T11:49:30;99414.22;;;18.12;25.65
80654;BME280;70020;45.524;10.240;2024-03-25T11:51:59;99418.13;;;18.16;24.47
80654;BME280;70020;45.524;10.240;2024-03-25T11:54:27;99415.59;;;18.00;24.78
80654;BME280;70020;45.524;10.240;2024-03-25T11:56:54;99416.41;;;18.00;25.46
80654;BME280;70020;45.524;10.240;2024-03-25T11:59:20;99415.28;;;17.95;25.51
80654;BME280;70020;45.524;10.240;2024-03-25T12:01:46;99409.66;;;18.06;24.87
80654;BME280;70020;45.524;10.240;2024-03-25T12:04:20;99409.31;;;18.17;22.44
80654;BME280;70020;45.524;10.240;2024-03-25T12:06:54;99407.66;;;18.16;22.78
80654;BME280;70020;45.524;10.240;2024-03-25T12:09:22;99407.41;;;18.33;23.49
80654;BME280;70020;45.524;10.240;2024-03-25T12:12:07;99403.41;;;18.46;23.58
80654;BME280;70020;45.524;10.240;2024-03-25T12:14:33;99394.94;;;18.35;23.76
80654;BME280;70020;45.524;10.240;2024-03-25T12:16:59;99382.44;;;18.15;23.08
80654;BME280;70020;45.524;10.240;2024-03-25T12:19:25;99383.88;;;18.25;22.97
80654;BME280;70020;45.524;10.240;2024-03-25T12:21:59;99389.47;;;18.45;24.03
80654;BME280;70020;45.524;10.240;2024-03-25T12:24:26;99373.63;;;18.47;22.64
80654;BME280;70020;45.524;10.240;2024-03-25T12:26:51;99382.22;;;18.55;22.71
80654;BME280;70020;45.524;10.240;2024-03-25T12:29:17;99374.94;;;18.65;22.53
80654;BME280;70020;45.524;10.240;2024-03-25T12:31:53;99373.19;;;18.58;22.92
80654;BME280;70020;45.524;10.240;2024-03-25T12:34:19;99374.50;;;18.62;22.85
80654;BME280;70020;45.524;10.240;2024-03-25T12:36:45;99369.31;;;18.54;23.23
80654;BME280;70020;45.524;10.240;2024-03-25T12:39:16;99365.19;;;18.59;23.81
80654;BME280;70020;45.524;10.240;2024-03-25T12:41:41;99363.44;;;18.52;22.29
80654;BME280;70020;45.524;10.240;2024-03-25T12:44:07;99365.63;;;18.63;22.95
80654;BME280;70020;45.524;10.240;2024-03-25T12:46:33;99361.94;;;18.72;23.59
80654;BME280;70020;45.524;10.240;2024-03-25T12:48:59;99352.63;;;18.69;21.65
80654;BME280;70020;45.524;10.240;2024-03-25T12:51:28;99343.44;;;18.73;21.45